Mumford, NY (14511)

3:07 PM EDT on March 27, 2015 (GMT -0400)
Mumford | | Change Station
CLOSE
Current Station
Personal Weather Station
Location: Scottsville, NY
Elevation: 600 ft
Nearby Weather Stations

Elev 600 ft 43.00 °N, 77.85 °W | Updated 25 seconds ago

Overcast
Overcast
31.3 °F
Feels Like 31 °F
N
2.5
Wind Variable Wind from North
Gusts 4.9 mph

Today
High -- | Low -- °F
--% Chance of Precip.
Yesterday
High -- | Low -- °F
Precip. -- in
7:02 AM 7:31 PM
First Quarter, 55% visible
Pressure 29.87 in
Visibility 9.0 miles
Clouds Mostly Cloudy 2500 ft
Overcast 3800 ft
Windchill 31 °F
Dew Point 22 °F
Humidity 67%
Rainfall 0.00 in
Snow Depth Not available.
UV 2.0 out of 12
Pollen .70 out of 12
Air Quality Not available.
Flu Activity Not available.
METAR KROC 271854Z 32010KT 9SM -SN BKN025 OVC038 01/M05 A2985 RMK AO2 SNB41 SLP115 P0000 T00061050

More Conditions Fewer Conditions

Pressure 29.87 in
Visibility 9.0 miles
Clouds Mostly Cloudy 2500 ft
Overcast 3800 ft
Windchill 31 °F
Dew Point 22 °F
Humidity 67%
Rainfall 0.00 in
Snow Depth Not available.
UV 2.0 out of 12
Pollen .70 out of 12
Air Quality Not available.
Flu Activity Not available.
METAR KROC 271854Z 32010KT 9SM -SN BKN025 OVC038 01/M05 A2985 RMK AO2 SNB41 SLP115 P0000 T00061050

More Conditions Fewer Conditions

10-Day Weather Forecast

Almanac

Astronomy

Mar. 27, 2015 Rise Set
Actual Time
Civil Twilight
Nautical Twilight
Astronomical Twilight
Moon
Length of Visible Light
Length of Day
Tomorrow will be .
, % of the Moon is Illuminated

Today's Extremes

State Highs State Lows

Community

WunderPhotos

Upload Photos

1,808,789 photos uploaded!

WunderBlogs® & News

Nearby

Air Quality

  Air Quality AQ Index Pollutant
Not available.

Snow Depth

Station Depth Elevation

Earthquake Activity

City Distance Mag. Time & Date
Minimum magnitude displayed is 2.5.

Coastal Water Temperatures

Place Temperature

Stations

Nearby Weather Stations

Station Location Temp. Windchill Dew Point Humidity Wind Precip. Elev Updated Type